Terminal Aerodrome Forecast
Issued by NWS Bismarck, ND

Home | Current Version | Previous Version | Graphics & Text | Print | Product List | Glossary On
Versions: 1 2 3 4 5 6 7 8 9 10 11 12 13 14 15 16 17
000
FTUS43 KBIS 271600 AAA
TAFBIS
TAF AMD
KBIS 271646Z 2717/2812 34014KT P6SM BKN025
     FM272000 35014KT P6SM SCT025 BKN035
     FM272300 36012KT P6SM SCT050
     FM280200 02006KT P6SM SKC=

USA.gov is the U.S. government's official web portal to all federal, state and local government web resources and services.